Fremont, Wisconsin
Current Conditions -  °F | °C
As of 8:15 PM on Saturday 22 Nov 2014 (Local Time) from KPCZ Reporting Station
Haze Haze  
Wind Chill: 39°   Ceiling: 200
Heat Index: 39°   Visibility: 0.75mi
Dew Point: 37°   Wind: 3mph
Humidity: 93%   Direction: 120°ESE
Pressure: 29.76"   Gusts: NA
Location:  44.26°N, 88.86°W
Report Text: KPCZ 230215Z AUTO 12003KT 3/4SM BR OVC002 04/03 A2976 RMK AO2 T00400030
Loading
Personal Weather Stations






























Interactive Weather Map New forecast layout! Learn more

10-Day Weather Forecast

Advertisements
Track Severe Weather on mobile